createdAt,value
2023-04-01T00:01:26.353Z,6.50
2023-04-01T00:04:39.043Z,9.35
2023-04-01T00:07:51.915Z,6.55
2023-04-01T00:11:04.588Z,6.25
2023-04-01T00:14:16.952Z,8.02
2023-04-01T00:17:29.626Z,5.60
2023-04-01T00:20:46.459Z,7.37
2023-04-01T00:24:00.208Z,7.05
2023-04-01T00:27:12.563Z,6.07
2023-04-01T00:30:25.500Z,5.68
2023-04-01T00:33:38.560Z,5.85
2023-04-01T00:36:55.097Z,4.93
2023-04-01T00:40:08.652Z,5.82
2023-04-01T00:43:21.510Z,5.53
2023-04-01T00:46:33.940Z,6.32
2023-04-01T00:49:49.388Z,6.15
2023-04-01T00:53:01.833Z,6.85
2023-04-01T00:56:41.838Z,5.95
2023-04-01T00:59:55.206Z,6.28
2023-04-01T01:03:08.568Z,4.95
2023-04-01T01:06:51.717Z,5.97
2023-04-01T01:10:19.390Z,6.05
2023-04-01T01:13:48.034Z,5.78
2023-04-01T01:17:07.671Z,6.32
2023-04-01T01:20:38.275Z,7.97
2023-04-01T01:24:09.363Z,7.32
2023-04-01T01:27:21.997Z,8.65
2023-04-01T01:31:17.364Z,6.97
2023-04-01T01:34:40.913Z,7.72
2023-04-01T01:38:01.618Z,10.35
2023-04-01T01:41:14.019Z,8.85
2023-04-01T01:44:27.429Z,10.45
2023-04-01T01:47:39.792Z,9.02
2023-04-01T01:50:53.032Z,7.97
2023-04-01T01:54:05.599Z,7.43
2023-04-01T01:57:18.749Z,7.97
2023-04-01T02:00:32.811Z,10.55
2023-04-01T02:03:45.596Z,8.77
2023-04-01T02:07:08.773Z,7.85
2023-04-01T02:10:21.389Z,7.87
2023-04-01T02:13:58.061Z,9.38
2023-04-01T02:17:12.748Z,8.40
2023-04-01T02:20:25.210Z,12.77
2023-04-01T02:23:37.939Z,11.02
2023-04-01T02:26:52.015Z,8.50
2023-04-01T02:30:05.224Z,11.10
2023-04-01T02:33:17.858Z,10.77
2023-04-01T02:36:30.270Z,8.35
2023-04-01T02:39:44.015Z,8.90
2023-04-01T02:42:56.444Z,8.80
2023-04-01T02:46:09.213Z,11.45
2023-04-01T02:49:21.695Z,10.38
2023-04-01T02:52:34.570Z,15.35
2023-04-01T02:55:47.061Z,21.45
2023-04-01T02:58:59.686Z,14.60
2023-04-01T03:02:12.157Z,19.05
2023-04-01T03:05:24.877Z,13.40
2023-04-01T03:08:37.247Z,9.90
2023-04-01T03:11:49.993Z,8.98
2023-04-01T03:15:10.683Z,9.38
2023-04-01T03:18:25.133Z,8.38
2023-04-01T03:21:38.154Z,8.18
2023-04-01T03:24:50.860Z,9.00
2023-04-01T03:28:03.508Z,8.35
2023-04-01T03:31:17.242Z,8.30
2023-04-01T03:34:30.054Z,8.57
2023-04-01T03:37:42.758Z,11.18
2023-04-01T03:40:55.106Z,9.45
2023-04-01T03:44:07.751Z,9.35
2023-04-01T03:47:20.424Z,9.95
2023-04-01T03:50:33.298Z,10.90
2023-04-01T03:53:46.315Z,7.12
2023-04-01T03:56:59.245Z,8.10
2023-04-01T04:00:12.413Z,10.73
2023-04-01T04:03:26.156Z,8.40
2023-04-01T04:06:38.960Z,10.15
2023-04-01T04:09:52.024Z,10.35
2023-04-01T04:13:04.941Z,8.75
2023-04-01T04:16:18.484Z,7.95
2023-04-01T04:19:35.249Z,13.10
2023-04-01T04:22:47.644Z,8.95
2023-04-01T04:26:01.042Z,9.52
2023-04-01T04:29:13.892Z,9.07
2023-04-01T04:32:27.334Z,8.23
2023-04-01T04:35:40.769Z,10.13
2023-04-01T04:38:53.750Z,10.00
2023-04-01T04:42:06.812Z,11.70
2023-04-01T04:45:19.506Z,12.15
2023-04-01T04:48:32.232Z,8.68
2023-04-01T04:51:45.144Z,9.60
2023-04-01T04:54:58.142Z,8.95
2023-04-01T04:58:10.965Z,17.30
2023-04-01T05:01:27.902Z,21.33
2023-04-01T05:04:40.663Z,15.73
2023-04-01T05:07:54.469Z,15.48
2023-04-01T05:11:15.090Z,22.75
2023-04-01T05:14:27.506Z,20.67
2023-04-01T05:17:40.771Z,11.93
2023-04-01T05:20:53.957Z,10.10
2023-04-01T05:24:09.528Z,10.00
2023-04-01T05:27:22.379Z,7.00
2023-04-01T05:30:35.117Z,9.13
2023-04-01T05:33:48.104Z,8.68
2023-04-01T05:37:00.728Z,9.30
2023-04-01T05:40:13.321Z,9.80
2023-04-01T05:43:25.988Z,7.18
2023-04-01T05:46:39.357Z,9.18
2023-04-01T05:49:52.361Z,10.25
2023-04-01T05:53:04.771Z,9.63
2023-04-01T05:56:17.477Z,12.50
2023-04-01T05:59:32.338Z,9.85
2023-04-01T06:02:45.294Z,8.82
2023-04-01T06:05:57.967Z,9.20
2023-04-01T06:09:18.140Z,9.93
2023-04-01T06:12:41.799Z,9.75
2023-04-01T06:16:17.203Z,9.60
2023-04-01T06:19:35.959Z,9.23
2023-04-01T06:23:12.057Z,8.27
2023-04-01T06:26:40.099Z,7.62
2023-04-01T06:30:11.805Z,7.28
2023-04-01T06:33:46.781Z,6.68
2023-04-01T06:37:21.278Z,7.22
2023-04-01T06:41:04.998Z,10.00
2023-04-01T06:44:21.520Z,9.15
2023-04-01T06:47:59.277Z,8.00
2023-04-01T06:51:56.159Z,9.70
2023-04-01T06:55:38.941Z,11.40
2023-04-01T06:58:58.226Z,9.13
2023-04-01T07:02:11.304Z,8.88
2023-04-01T07:05:24.011Z,9.63
2023-04-01T07:08:38.900Z,8.20
2023-04-01T07:11:51.386Z,9.52
2023-04-01T07:15:42.192Z,12.00
2023-04-01T07:22:16.917Z,9.02
2023-04-01T07:25:39.357Z,5.60
2023-04-01T07:28:54.215Z,6.03
2023-04-01T07:32:25.903Z,5.53
2023-04-01T07:35:44.353Z,2.87
2023-04-01T07:39:23.014Z,5.07
2023-04-01T07:42:56.025Z,4.10
2023-04-01T07:46:31.785Z,5.95
2023-04-01T07:50:35.105Z,2.90
2023-04-01T07:53:50.433Z,3.12
2023-04-01T07:57:15.104Z,3.37
2023-04-01T08:00:48.270Z,3.10
2023-04-01T08:04:20.895Z,4.15
2023-04-01T08:08:01.250Z,3.53
2023-04-01T08:11:35.050Z,6.28
2023-04-01T08:15:14.678Z,3.80
2023-04-01T08:18:34.807Z,4.82
2023-04-01T08:21:49.800Z,3.20
2023-04-01T08:25:03.941Z,6.30
2023-04-01T08:28:38.422Z,2.40
2023-04-01T08:31:58.089Z,5.45
2023-04-01T08:35:34.392Z,3.95
2023-04-01T08:46:11.854Z,2.35
2023-04-01T08:49:45.432Z,2.60
2023-04-01T08:53:40.973Z,3.35
2023-04-01T08:57:05.487Z,3.87
2023-04-01T09:00:34.756Z,2.47
2023-04-01T09:03:59.722Z,3.20
2023-04-01T09:07:46.448Z,3.95
2023-04-01T09:11:26.935Z,2.33
2023-04-01T09:14:57.820Z,3.80
2023-04-01T09:18:31.938Z,1.85
2023-04-01T09:21:47.793Z,3.45
2023-04-01T09:25:00.937Z,2.83
2023-04-01T09:28:13.411Z,3.87
2023-04-01T09:31:56.801Z,3.28
2023-04-01T09:35:23.176Z,3.40
2023-04-01T09:39:03.698Z,4.75
2023-04-01T09:43:03.666Z,2.92
2023-04-01T09:46:36.693Z,2.60
2023-04-01T09:50:01.152Z,4.25
2023-04-01T09:53:37.504Z,5.50
2023-04-01T09:57:01.786Z,2.35
2023-04-01T10:00:26.497Z,3.05
2023-04-01T10:04:08.096Z,2.40
2023-04-01T10:07:20.530Z,2.15
2023-04-01T10:11:08.185Z,2.28
2023-04-01T10:14:39.310Z,2.57
2023-04-01T10:18:06.157Z,4.12
2023-04-01T10:22:12.840Z,2.70
2023-04-01T10:26:03.637Z,3.37
2023-04-01T10:29:28.112Z,4.10
2023-04-01T10:33:16.271Z,3.65
2023-04-01T10:36:50.151Z,3.70
2023-04-01T10:40:18.431Z,6.43
2023-04-01T10:43:39.062Z,3.92
2023-04-01T10:47:02.572Z,2.67
2023-04-01T10:50:35.983Z,4.72
2023-04-01T10:54:16.842Z,3.58
2023-04-01T10:57:39.544Z,4.82
2023-04-01T11:01:21.917Z,4.80
2023-04-01T11:05:10.992Z,4.70
2023-04-01T11:08:44.849Z,5.43
2023-04-01T11:12:21.583Z,4.60
2023-04-01T11:16:08.431Z,5.15
2023-04-01T11:19:39.740Z,5.10
2023-04-01T11:23:26.655Z,5.80
2023-04-01T11:26:53.463Z,3.85
2023-04-01T11:30:48.743Z,7.47
2023-04-01T11:34:28.228Z,3.75
2023-04-01T11:37:56.361Z,9.82
2023-04-01T11:41:40.365Z,5.37
2023-04-01T11:45:13.255Z,4.60
2023-04-01T11:48:42.077Z,8.23
2023-04-01T11:52:27.887Z,3.25
2023-04-01T11:55:43.233Z,6.65
2023-04-01T11:59:33.972Z,4.40
2023-04-01T12:03:08.419Z,6.82
2023-04-01T12:06:39.461Z,5.15
2023-04-01T12:09:59.200Z,4.43
2023-04-01T12:13:23.050Z,4.68
2023-04-01T12:16:41.443Z,6.28
2023-04-01T12:20:03.391Z,4.28
2023-04-01T12:23:24.901Z,8.40
2023-04-01T12:27:12.570Z,4.65
2023-04-01T12:30:35.689Z,2.55
2023-04-01T12:34:00.424Z,4.25
2023-04-01T12:37:27.577Z,4.95
2023-04-01T12:40:50.733Z,4.30
2023-04-01T12:44:21.393Z,3.85
2023-04-01T12:48:03.350Z,1.95
2023-04-01T12:51:37.014Z,6.97
2023-04-01T12:55:02.726Z,3.35
2023-04-01T12:58:36.453Z,4.25
2023-04-01T13:02:07.983Z,3.50
2023-04-01T13:05:51.772Z,4.57
2023-04-01T13:09:19.708Z,4.32
2023-04-01T13:15:56.115Z,6.40
2023-04-01T13:19:21.534Z,4.25
2023-04-01T13:22:58.038Z,3.67
2023-04-01T13:26:36.471Z,2.75
2023-04-01T13:30:01.706Z,2.55
2023-04-01T13:33:32.068Z,3.95
2023-04-01T13:36:53.931Z,3.50
2023-04-01T13:40:36.464Z,5.20
2023-04-01T13:43:54.292Z,2.60
2023-04-01T13:47:46.674Z,2.03
2023-04-01T13:51:43.900Z,3.28
2023-04-01T13:55:21.233Z,3.70
2023-04-01T13:58:53.912Z,1.62
2023-04-01T14:02:30.960Z,3.00
2023-04-01T14:06:11.762Z,1.75
2023-04-01T14:09:29.823Z,1.55
2023-04-01T14:12:56.265Z,1.65
2023-04-01T14:16:20.339Z,6.80
2023-04-01T14:19:50.871Z,4.95
2023-04-01T14:23:37.076Z,2.15
2023-04-01T14:26:59.630Z,2.33
2023-04-01T14:30:36.687Z,3.70
2023-04-01T14:34:01.493Z,1.55
2023-04-01T14:37:31.872Z,3.40
2023-04-01T14:40:53.584Z,2.92
2023-04-01T14:44:24.145Z,2.80
2023-04-01T14:47:57.380Z,3.33
2023-04-01T14:51:23.891Z,2.00
2023-04-01T14:54:40.189Z,1.63
2023-04-01T14:58:28.618Z,3.30
2023-04-01T15:02:04.778Z,1.92
2023-04-01T15:05:44.830Z,3.22
2023-04-01T15:09:12.697Z,3.12
2023-04-01T15:16:09.267Z,2.47
2023-04-01T15:19:24.526Z,3.45
2023-04-01T15:22:46.593Z,3.08
2023-04-01T15:26:07.713Z,2.12
2023-04-01T15:29:39.076Z,2.28
2023-04-01T15:33:17.762Z,3.20
2023-04-01T15:36:42.311Z,4.07
2023-04-01T15:40:09.623Z,6.95
2023-04-01T15:46:50.238Z,8.18
2023-04-01T15:50:02.958Z,5.65
2023-04-01T15:53:27.460Z,2.97
2023-04-01T15:56:50.627Z,3.03
2023-04-01T16:00:14.703Z,3.90
2023-04-01T16:03:46.642Z,2.62
2023-04-01T16:07:24.061Z,2.45
2023-04-01T16:10:39.575Z,3.47
2023-04-01T16:14:15.520Z,8.35
2023-04-01T16:17:38.496Z,13.43
2023-04-01T16:20:52.585Z,4.28
2023-04-01T16:24:34.520Z,3.65
2023-04-01T16:27:59.986Z,6.70
2023-04-01T16:31:27.807Z,4.15
2023-04-01T16:35:01.437Z,5.32
2023-04-01T16:38:19.890Z,5.18
2023-04-01T16:42:08.694Z,7.78
2023-04-01T16:48:55.499Z,7.45
2023-04-01T16:52:10.488Z,8.23
2023-04-01T16:55:23.065Z,3.33
2023-04-01T16:59:01.954Z,4.07
2023-04-01T17:02:18.629Z,3.83
2023-04-01T17:06:12.350Z,3.77
2023-04-01T17:09:30.608Z,2.53
2023-04-01T17:13:09.347Z,2.55
2023-04-01T17:16:48.528Z,6.35
2023-04-01T17:20:24.975Z,6.90
2023-04-01T17:23:51.268Z,8.80
2023-04-01T17:27:12.896Z,10.05
2023-04-01T17:30:36.118Z,9.45
2023-04-01T17:34:10.710Z,4.47
2023-04-01T17:37:33.053Z,7.35
2023-04-01T17:40:46.653Z,4.32
2023-04-01T17:44:33.387Z,5.30
2023-04-01T17:47:52.427Z,3.92
2023-04-01T17:51:25.758Z,3.83
2023-04-01T17:54:54.884Z,5.55
2023-04-01T17:58:07.433Z,6.60
2023-04-01T18:01:25.481Z,7.43
2023-04-01T18:04:44.895Z,10.48
2023-04-01T18:08:25.845Z,20.83
2023-04-01T18:11:59.705Z,15.02
2023-04-01T18:15:43.423Z,11.30
2023-04-01T18:18:59.613Z,13.60
2023-04-01T18:22:17.873Z,7.47
2023-04-01T18:25:38.369Z,6.40
2023-04-01T18:29:28.980Z,5.87
2023-04-01T18:32:52.275Z,6.20
2023-04-01T18:36:04.738Z,6.12
2023-04-01T18:39:29.547Z,7.80
2023-04-01T18:43:12.726Z,6.60
2023-04-01T18:46:38.198Z,22.05
2023-04-01T18:50:14.411Z,33.63
2023-04-01T18:53:38.832Z,14.82
2023-04-01T18:56:51.770Z,13.90
2023-04-01T19:00:06.001Z,13.73
2023-04-01T19:03:23.014Z,20.75
2023-04-01T19:06:42.359Z,31.02
2023-04-01T19:09:54.740Z,17.00
2023-04-01T19:13:41.457Z,15.90
2023-04-01T19:17:36.249Z,18.37
2023-04-01T19:20:58.319Z,16.52
2023-04-01T19:24:14.191Z,20.20
2023-04-01T19:27:43.780Z,20.55
2023-04-01T19:30:58.737Z,20.37
2023-04-01T19:34:46.096Z,16.85
2023-04-01T19:38:13.298Z,16.35
2023-04-01T19:41:48.899Z,16.70
2023-04-01T19:45:19.561Z,13.93
2023-04-01T19:48:54.010Z,11.12
2023-04-01T19:52:19.128Z,12.57
2023-04-01T19:55:58.701Z,13.20
2023-04-01T19:59:22.191Z,13.50
2023-04-01T20:02:52.294Z,15.60
2023-04-01T20:06:23.421Z,16.55
2023-04-01T20:09:50.194Z,18.75
2023-04-01T20:13:02.891Z,20.27
2023-04-01T20:16:16.417Z,17.52
2023-04-01T20:20:05.840Z,21.35
2023-04-01T20:23:27.564Z,20.30
2023-04-01T20:26:42.078Z,21.55
2023-04-01T20:29:59.514Z,22.77
2023-04-01T20:33:17.849Z,21.80
2023-04-01T20:37:02.322Z,23.33
2023-04-01T20:40:20.717Z,22.50
2023-04-01T20:43:51.688Z,27.60
2023-04-01T20:47:15.836Z,21.20
2023-04-01T20:50:42.318Z,23.55
2023-04-01T20:54:19.241Z,23.07
2023-04-01T20:57:34.379Z,27.40
2023-04-01T21:01:09.195Z,24.35
2023-04-01T21:04:49.567Z,37.10
2023-04-01T21:08:29.845Z,36.92
2023-04-01T21:12:28.521Z,29.20
2023-04-01T21:19:22.434Z,54.33
2023-04-01T21:22:45.986Z,30.02
2023-04-01T21:26:13.750Z,33.97
2023-04-01T21:29:58.803Z,28.30
2023-04-01T21:33:38.699Z,23.27
2023-04-01T21:36:53.886Z,15.52
2023-04-01T21:40:17.357Z,14.18
2023-04-01T21:43:43.248Z,12.30
2023-04-01T21:47:34.185Z,17.98
2023-04-01T21:51:11.300Z,15.30
2023-04-01T21:54:29.882Z,13.52
2023-04-01T21:57:57.640Z,16.85
2023-04-01T22:01:40.976Z,14.35
2023-04-01T22:05:38.520Z,14.77
2023-04-01T22:09:13.797Z,16.73
2023-04-01T22:12:32.207Z,14.07
2023-04-01T22:16:06.835Z,13.57
2023-04-01T22:19:34.746Z,12.43
2023-04-01T22:23:13.953Z,12.48
2023-04-01T22:26:29.200Z,17.62
2023-04-01T22:29:57.520Z,15.43
2023-04-01T22:33:17.993Z,22.77
2023-04-01T22:36:41.778Z,22.67
2023-04-01T22:40:08.772Z,19.20
2023-04-01T22:43:42.264Z,18.70
2023-04-01T22:47:00.470Z,15.95
2023-04-01T22:50:38.684Z,18.95
2023-04-01T22:54:13.870Z,20.92
2023-04-01T22:57:42.761Z,17.98
2023-04-01T23:00:57.796Z,17.17
2023-04-01T23:04:11.262Z,17.05
2023-04-01T23:08:21.403Z,19.50
2023-04-01T23:11:41.091Z,18.05
2023-04-01T23:15:01.189Z,17.40
2023-04-01T23:18:21.933Z,15.43
2023-04-01T23:21:39.697Z,14.43
2023-04-01T23:24:56.422Z,13.75
2023-04-01T23:28:27.204Z,14.10
2023-04-01T23:31:40.717Z,9.90
2023-04-01T23:34:57.706Z,11.18
2023-04-01T23:38:10.079Z,9.52
2023-04-01T23:41:30.952Z,5.95
2023-04-01T23:44:44.345Z,4.45
2023-04-01T23:47:57.059Z,3.87
2023-04-01T23:51:49.051Z,4.50
2023-04-01T23:55:24.958Z,3.15
2023-04-01T23:58:48.910Z,3.00
